Time;durP1;ratioP1;P1;durP2;ratioP2;P2;SDS_P1;SDS_P2;PMS_P1;PMS_P2;Temp;Humidity;BMP_temperature;BMP_pressure;BME280_temperature;BME280_humidity;BME280_pressure;Samples;Min_cycle;Max_cycle;Signal;HPM_P1;HPM_P2
2022/01/29 00:01:53;;;;;;;30.10;11.65;;;7.40;99.90;;;;;;5147291;27;20155;-75
2022/01/29 00:04:19;;;;;;;31.25;11.35;;;7.10;99.90;;;;;;5141466;27;20035;-75
2022/01/29 00:06:45;;;;;;;25.55;11.25;;;7.70;99.90;;;;;;5139887;27;20065;-75
2022/01/29 00:09:14;;;;;;;32.33;11.75;;;7.20;99.90;;;;;;5139748;27;20127;-75
2022/01/29 00:11:41;;;;;;;25.75;10.90;;;7.10;99.90;;;;;;5142729;27;20042;-75
2022/01/29 00:14:07;;;;;;;28.15;10.20;;;7.10;99.90;;;;;;5107681;27;20039;-75
2022/01/29 00:16:34;;;;;;;26.85;10.77;;;7.20;99.90;;;;;;5139225;27;20034;-75
2022/01/29 00:18:59;;;;;;;27.00;12.10;;;7.40;99.90;;;;;;5154109;27;20123;-75
2022/01/29 00:21:25;;;;;;;25.73;12.60;;;7.30;99.90;;;;;;5127008;27;20475;-75
2022/01/29 00:23:51;;;;;;;25.40;11.35;;;7.20;99.90;;;;;;5147940;27;20276;-75
2022/01/29 00:26:20;;;;;;;33.90;12.95;;;7.20;99.90;;;;;;5114186;27;20038;-75
2022/01/29 00:28:46;;;;;;;33.92;12.90;;;8.40;99.90;;;;;;5123661;27;20542;-75
2022/01/29 00:31:12;;;;;;;29.05;12.45;;;7.20;99.90;;;;;;5117346;27;20117;-74
2022/01/29 00:33:38;;;;;;;25.67;12.93;;;7.20;99.90;;;;;;5136749;27;20450;-75
2022/01/29 00:36:05;;;;;;;33.17;13.90;;;7.10;99.90;;;;;;5113029;27;20038;-75
2022/01/29 00:38:31;;;;;;;28.33;13.35;;;7.10;99.90;;;;;;5115558;27;20038;-75
2022/01/29 00:40:57;;;;;;;29.58;12.30;;;7.20;99.90;;;;;;5141344;27;20121;-75
2022/01/29 00:43:23;;;;;;;31.55;14.40;;;7.10;99.90;;;;;;5128240;27;20165;-75
2022/01/29 00:45:49;;;;;;;28.02;12.70;;;7.80;99.90;;;;;;5134725;27;20550;-75
2022/01/29 00:48:14;;;;;;;29.88;14.07;;;7.40;99.90;;;;;;5148590;27;20094;-75
2022/01/29 00:50:40;;;;;;;23.30;11.45;;;7.60;99.90;;;;;;5136894;27;20069;-75
2022/01/29 00:53:06;;;;;;;28.33;14.07;;;8.00;99.90;;;;;;5124560;27;20062;-75
2022/01/29 00:55:32;;;;;;;31.83;13.40;;;7.20;99.90;;;;;;5134616;27;20114;-74
2022/01/29 00:57:57;;;;;;;27.95;14.20;;;7.20;99.90;;;;;;5142027;27;20095;-75
2022/01/29 01:00:23;;;;;;;31.53;14.90;;;8.10;99.90;;;;;;5142956;27;20027;-75
2022/01/29 01:02:49;;;;;;;27.20;11.88;;;7.50;99.90;;;;;;5147147;27;20285;-75
2022/01/29 01:05:14;;;;;;;33.25;14.57;;;7.30;99.90;;;;;;5140066;27;20073;-75
2022/01/29 01:07:41;;;;;;;27.50;13.32;;;7.40;99.90;;;;;;5147813;27;20034;-75
2022/01/29 01:10:09;;;;;;;28.40;14.02;;;7.20;99.90;;;;;;5134431;27;20043;-75
2022/01/29 01:12:35;;;;;;;36.45;13.20;;;7.20;99.90;;;;;;5096844;27;20047;-75
2022/01/29 01:15:01;;;;;;;28.05;13.57;;;7.20;99.90;;;;;;5118503;27;20046;-75
2022/01/29 01:17:27;;;;;;;34.60;14.50;;;6.60;99.90;;;;;;5129783;27;20065;-75
2022/01/29 01:19:52;;;;;;;29.08;15.15;;;7.30;99.90;;;;;;5125705;27;20063;-75
2022/01/29 01:22:19;;;;;;;28.93;14.13;;;7.30;99.90;;;;;;5142713;27;20039;-75
2022/01/29 01:24:45;;;;;;;38.13;14.95;;;7.50;99.90;;;;;;5114024;27;20284;-75
2022/01/29 01:27:10;;;;;;;38.30;15.55;;;8.00;99.90;;;;;;5106424;27;20118;-75
2022/01/29 01:29:36;;;;;;;30.00;14.73;;;7.30;99.90;;;;;;5107181;27;20129;-75
2022/01/29 01:32:03;;;;;;;31.92;14.82;;;7.30;99.90;;;;;;5144066;27;20280;-75
2022/01/29 01:34:33;;;;;;;;;;;7.40;99.90;;;;;;5109044;27;20126;-75
2022/01/29 01:37:04;;;;;;;33.90;15.23;;;7.40;99.90;;;;;;5118141;27;19962;-75
2022/01/29 01:39:34;;;;;;;34.15;14.85;;;8.00;99.90;;;;;;5135584;27;20443;-75
2022/01/29 01:42:04;;;;;;;38.30;15.77;;;7.40;99.90;;;;;;5123955;27;20457;-75
2022/01/29 01:44:35;;;;;;;39.60;16.75;;;8.00;99.90;;;;;;5136738;27;20043;-75
2022/01/29 01:47:02;;;;;;;41.95;15.25;;;7.40;99.90;;;;;;5144109;27;20038;-75
2022/01/29 01:49:28;;;;;;;39.47;16.50;;;7.40;99.90;;;;;;5120464;27;20079;-75
2022/01/29 01:51:54;;;;;;;37.00;14.57;;;7.40;99.90;;;;;;5118349;27;20453;-75
2022/01/29 01:54:21;;;;;;;34.22;15.45;;;7.50;99.90;;;;;;5122779;27;20287;-75
2022/01/29 01:56:46;;;;;;;32.42;15.10;;;7.70;99.90;;;;;;5144209;27;20092;-75
2022/01/29 01:59:12;;;;;;;37.55;14.55;;;7.60;99.90;;;;;;5120242;27;20039;-75
2022/01/29 02:01:38;;;;;;;33.85;16.00;;;7.50;99.90;;;;;;5120824;27;20035;-75
2022/01/29 02:04:04;;;;;;;31.10;13.75;;;7.50;99.90;;;;;;5133742;27;20096;-75
2022/01/29 02:06:30;;;;;;;30.88;14.40;;;7.60;99.90;;;;;;5124990;27;20039;-75
2022/01/29 02:09:01;;;;;;;38.42;15.05;;;8.00;99.90;;;;;;5144045;27;20039;-75
2022/01/29 02:11:28;;;;;;;37.17;14.68;;;7.60;99.90;;;;;;5143007;27;20047;-75
2022/01/29 02:13:56;;;;;;;39.38;14.77;;;7.80;99.90;;;;;;5122564;27;20379;-74
2022/01/29 02:16:22;;;;;;;32.67;14.13;;;7.70;99.90;;;;;;5147672;27;20409;-75
2022/01/29 02:18:48;;;;;;;39.90;13.77;;;7.90;99.90;;;;;;5145933;27;20073;-75
2022/01/29 02:21:16;;;;;;;37.35;15.38;;;7.70;99.90;;;;;;5127286;27;20055;-75
2022/01/29 02:23:42;;;;;;;39.13;14.77;;;7.70;99.90;;;;;;5126740;27;20482;-75
2022/01/29 02:26:07;;;;;;;29.88;13.40;;;8.20;99.90;;;;;;5135766;27;20034;-75
2022/01/29 02:28:34;;;;;;;31.00;13.10;;;7.70;99.90;;;;;;5136565;27;20418;-75
2022/01/29 02:31:02;;;;;;;30.98;13.65;;;7.80;99.90;;;;;;5135913;27;20122;-75
2022/01/29 02:33:33;;;;;;;33.58;14.45;;;7.90;99.90;;;;;;5124027;27;20045;-75
2022/01/29 02:35:59;;;;;;;34.45;13.57;;;7.80;99.90;;;;;;5146091;27;20035;-74
2022/01/29 02:38:26;;;;;;;31.73;13.18;;;7.80;99.90;;;;;;5122609;27;20437;-75
2022/01/29 02:41:03;;;;;;;27.75;11.77;;;7.80;99.90;;;;;;5145354;27;20055;-75
2022/01/29 02:43:35;;;;;;;36.35;13.55;;;7.90;99.90;;;;;;5125142;27;20121;-75
2022/01/29 02:46:29;;;;;;;31.02;13.65;;;9.30;99.90;;;;;;5120519;27;20058;-75
2022/01/29 02:48:52;;;;;;;29.95;13.35;;;8.40;99.90;;;;;;5134579;27;20099;-75
2022/01/29 02:51:19;;;;;;;27.02;14.02;;;7.80;99.90;;;;;;5120093;27;20110;-75
2022/01/29 02:53:46;;;;;;;35.85;13.85;;;8.00;99.90;;;;;;5143625;27;20070;-75
2022/01/29 02:56:12;;;;;;;29.35;13.10;;;7.80;99.90;;;;;;5143705;27;20042;-75
2022/01/29 02:58:38;;;;;;;29.55;13.70;;;8.10;99.90;;;;;;5135591;27;20039;-74
2022/01/29 03:01:05;;;;;;;39.05;14.48;;;8.50;99.90;;;;;;5137371;27;20418;-74
2022/01/29 03:03:31;;;;;;;35.30;14.43;;;7.90;99.90;;;;;;5105262;27;20065;-74
2022/01/29 03:05:57;;;;;;;37.53;13.30;;;8.50;99.90;;;;;;5145372;27;20043;-75
2022/01/29 03:08:25;;;;;;;32.92;13.98;;;7.90;99.90;;;;;;5137833;27;20046;-74
2022/01/29 03:10:51;;;;;;;31.30;13.02;;;7.90;99.90;;;;;;5102663;27;20038;-74
2022/01/29 03:13:17;;;;;;;35.80;12.95;;;8.00;99.90;;;;;;5142880;27;20523;-74
2022/01/29 03:15:43;;;;;;;25.27;12.48;;;8.00;99.90;;;;;;5127218;27;20154;-74
2022/01/29 03:18:08;;;;;;;28.35;11.82;;;8.00;99.90;;;;;;5134328;27;20172;-74
2022/01/29 03:20:34;;;;;;;35.70;12.75;;;8.10;99.90;;;;;;5143486;27;20035;-74
2022/01/29 03:23:00;;;;;;;24.35;11.95;;;8.00;99.90;;;;;;5129547;27;20440;-74
2022/01/29 03:25:26;;;;;;;31.42;12.98;;;8.10;99.90;;;;;;5119383;27;20035;-75
2022/01/29 03:27:52;;;;;;;30.33;12.18;;;8.40;99.90;;;;;;5129428;27;20046;-74
2022/01/29 03:30:18;;;;;;;24.67;12.10;;;8.40;99.90;;;;;;5112373;27;20035;-74
2022/01/29 03:32:43;;;;;;;21.80;11.40;;;8.20;99.90;;;;;;5122662;27;20034;-74
2022/01/29 03:35:10;;;;;;;29.50;11.73;;;8.20;99.90;;;;;;5111753;27;20062;-75
2022/01/29 03:37:36;;;;;;;26.60;11.95;;;8.20;99.90;;;;;;5118512;27;20305;-74
2022/01/29 03:40:05;;;;;;;34.03;12.00;;;9.00;99.90;;;;;;5141606;27;20045;-74
2022/01/29 03:42:36;;;;;;;24.83;10.82;;;8.30;99.90;;;;;;5149934;27;20110;-75
2022/01/29 03:45:05;;;;;;;34.65;12.10;;;8.30;99.90;;;;;;5150368;27;20516;-74
2022/01/29 03:47:31;;;;;;;23.45;11.10;;;8.20;99.90;;;;;;5145351;27;20353;-74
2022/01/29 03:49:57;;;;;;;29.65;11.38;;;8.20;99.90;;;;;;5146483;27;20030;-74
2022/01/29 03:52:23;;;;;;;22.35;11.25;;;8.40;99.90;;;;;;5111906;27;20039;-74
2022/01/29 03:54:48;;;;;;;18.73;10.03;;;8.40;99.90;;;;;;5145447;27;20035;-75
2022/01/29 03:57:14;;;;;;;25.70;10.77;;;8.30;99.90;;;;;;5140044;27;20288;-74
2022/01/29 03:59:43;;;;;;;23.55;10.77;;;8.20;99.90;;;;;;5120177;27;20343;-74
2022/01/29 04:02:08;;;;;;;25.85;10.73;;;8.30;99.90;;;;;;5117476;27;20026;-74
2022/01/29 04:04:34;;;;;;;23.13;11.18;;;8.30;99.90;;;;;;5098422;27;20479;-74
2022/01/29 04:07:05;;;;;;;29.15;9.88;;;7.20;99.90;;;;;;5125795;27;20463;-74
2022/01/29 04:09:31;;;;;;;26.65;11.10;;;8.40;99.90;;;;;;5110198;27;20051;-74
2022/01/29 04:11:57;;;;;;;28.35;11.07;;;8.50;99.90;;;;;;5135681;27;20031;-74
2022/01/29 04:14:23;;;;;;;23.92;11.98;;;8.50;99.90;;;;;;5121450;27;20042;-74
2022/01/29 04:16:49;;;;;;;20.38;10.45;;;8.40;99.90;;;;;;5148876;27;20105;-74
2022/01/29 04:19:14;;;;;;;25.70;11.68;;;8.40;99.90;;;;;;5113974;27;20049;-74
2022/01/29 04:21:43;;;;;;;27.27;12.03;;;8.40;99.90;;;;;;5141176;27;20039;-74
2022/01/29 04:24:09;;;;;;;25.48;10.98;;;8.50;99.90;;;;;;5131741;27;20972;-74
2022/01/29 04:26:35;;;;;;;24.73;10.73;;;8.50;99.90;;;;;;5146432;27;20080;-74
2022/01/29 04:29:05;;;;;;;24.55;12.02;;;8.80;99.90;;;;;;5141150;27;20043;-74
2022/01/29 04:31:39;;;;;;;23.92;11.32;;;8.60;99.90;;;;;;5126723;27;20043;-75
2022/01/29 04:34:05;;;;;;;22.27;11.57;;;8.50;99.90;;;;;;5150719;27;20067;-75
2022/01/29 04:36:31;;;;;;;22.98;11.80;;;8.50;99.90;;;;;;5104455;27;20099;-74
2022/01/29 04:38:57;;;;;;;22.60;11.05;;;8.60;99.90;;;;;;5146086;27;20050;-75
2022/01/29 04:41:23;;;;;;;24.70;11.55;;;8.50;99.90;;;;;;5129644;27;20078;-74
2022/01/29 04:43:49;;;;;;;22.85;11.43;;;8.50;99.90;;;;;;5146655;27;20091;-74
2022/01/29 04:46:15;;;;;;;25.77;11.63;;;8.50;99.90;;;;;;5131795;27;20394;-74
2022/01/29 04:48:40;;;;;;;24.83;11.95;;;8.60;99.90;;;;;;5142934;27;20292;-74
2022/01/29 04:51:06;;;;;;;28.17;11.48;;;8.80;99.90;;;;;;5142929;27;20052;-74
2022/01/29 04:53:32;;;;;;;26.63;11.75;;;8.70;99.90;;;;;;5140553;27;20082;-74
2022/01/29 04:55:58;;;;;;;26.88;11.85;;;8.60;99.90;;;;;;5105009;27;20759;-74
2022/01/29 04:58:24;;;;;;;28.48;10.52;;;8.60;99.90;;;;;;5148002;27;20049;-74
2022/01/29 05:00:50;;;;;;;25.05;11.32;;;8.60;99.90;;;;;;5098726;27;20096;-74
2022/01/29 05:03:16;;;;;;;22.15;11.55;;;8.80;99.90;;;;;;5147665;27;20121;-74
2022/01/29 05:05:43;;;;;;;30.83;11.75;;;8.70;99.90;;;;;;5145704;27;20035;-74
2022/01/29 05:08:11;;;;;;;23.98;11.23;;;8.70;99.90;;;;;;5139897;27;20043;-74
2022/01/29 05:10:37;;;;;;;25.30;12.35;;;8.70;99.90;;;;;;5145171;27;20030;-74
2022/01/29 05:13:08;;;;;;;22.23;10.82;;;8.80;99.90;;;;;;5142163;27;20087;-74
2022/01/29 05:29:01;;;;;;;21.48;10.20;;;8.70;99.90;;;;;;5135639;27;20054;-74
2022/01/29 05:31:27;;;;;;;28.23;12.13;;;8.80;99.90;;;;;;5139645;27;20515;-74
2022/01/29 05:33:53;;;;;;;23.67;11.75;;;8.80;99.90;;;;;;5139379;27;20074;-74
2022/01/29 05:36:19;;;;;;;20.83;11.88;;;8.80;99.90;;;;;;5127539;27;20121;-74
2022/01/29 05:38:44;;;;;;;28.42;11.20;;;8.80;99.90;;;;;;5139632;27;20070;-74
2022/01/29 05:41:10;;;;;;;23.90;11.33;;;8.80;99.90;;;;;;5138730;27;20095;-74
2022/01/29 05:43:36;;;;;;;23.75;11.13;;;8.80;99.90;;;;;;5146146;27;20363;-74
2022/01/29 05:46:02;;;;;;;24.77;11.57;;;8.80;99.90;;;;;;5119026;27;20035;-74
2022/01/29 05:48:28;;;;;;;24.17;11.98;;;8.90;99.90;;;;;;5114394;27;20065;-74
2022/01/29 05:50:55;;;;;;;22.90;11.73;;;8.90;99.90;;;;;;5127139;27;20067;-74
2022/01/29 05:53:21;;;;;;;20.88;10.07;;;9.10;99.90;;;;;;5122451;27;20423;-74
2022/01/29 05:55:47;;;;;;;24.48;11.65;;;8.60;99.90;;;;;;5123721;27;20496;-74
2022/01/29 05:58:13;;;;;;;27.92;11.98;;;8.80;99.90;;;;;;5121058;27;20031;-74
2022/01/29 06:00:38;;;;;;;21.85;11.50;;;8.80;99.90;;;;;;5118772;27;20039;-74
2022/01/29 06:03:10;;;;;;;22.88;11.63;;;8.70;99.90;;;;;;5124677;27;20126;-73
2022/01/29 06:05:37;;;;;;;23.13;11.68;;;9.00;99.90;;;;;;5118902;27;20051;-74
2022/01/29 06:08:03;;;;;;;;;;;8.80;99.90;;;;;;5106300;27;20039;-74
2022/01/29 06:10:29;;;;;;;24.02;11.30;;;8.80;99.90;;;;;;5140479;27;19921;-74
2022/01/29 06:13:12;;;;;;;23.25;11.23;;;8.80;99.90;;;;;;5151784;27;20113;-74
2022/01/29 06:15:44;;;;;;;24.45;10.52;;;8.90;99.90;;;;;;5127844;27;20030;-74
2022/01/29 06:18:15;;;;;;;24.15;11.70;;;8.90;99.90;;;;;;5131152;27;20039;-74
2022/01/29 06:20:42;;;;;;;23.40;11.82;;;8.90;99.90;;;;;;5136440;27;20118;-74
2022/01/29 06:23:13;;;;;;;29.60;11.85;;;9.40;99.90;;;;;;5138609;27;20114;-74
2022/01/29 06:25:39;;;;;;;23.85;11.85;;;9.30;99.90;;;;;;5141227;27;20043;-74
2022/01/29 06:28:05;;;;;;;23.13;11.27;;;8.90;99.90;;;;;;5138434;27;20043;-74
2022/01/29 06:30:31;;;;;;;24.38;11.50;;;8.90;99.90;;;;;;5133522;27;20039;-74
2022/01/29 06:33:04;;;;;;;20.70;10.57;;;8.90;99.90;;;;;;5147112;27;20061;-74
2022/01/29 06:35:30;;;;;;;21.33;10.88;;;8.90;99.90;;;;;;5120796;27;20066;-74
2022/01/29 06:37:56;;;;;;;20.02;10.43;;;8.80;99.90;;;;;;5142639;27;20501;-74
2022/01/29 06:40:22;;;;;;;25.15;11.07;;;9.60;99.90;;;;;;5144003;27;20051;-74
2022/01/29 06:42:48;;;;;;;25.83;11.35;;;8.80;99.90;;;;;;5127711;27;20058;-74
2022/01/29 06:45:13;;;;;;;18.80;9.90;;;8.90;99.90;;;;;;5135216;27;20027;-74
2022/01/29 06:47:39;;;;;;;26.73;10.43;;;9.70;99.90;;;;;;5133527;27;20281;-74
2022/01/29 06:50:05;;;;;;;20.37;10.83;;;8.90;99.90;;;;;;5133232;27;20284;-74
2022/01/29 06:52:31;;;;;;;22.30;11.05;;;8.90;99.90;;;;;;5115855;27;20284;-74
2022/01/29 06:54:57;;;;;;;24.17;10.95;;;8.90;99.90;;;;;;5139737;27;20031;-74
2022/01/29 06:57:22;;;;;;;19.00;10.77;;;8.90;99.90;;;;;;5141600;27;20542;-74
2022/01/29 06:59:48;;;;;;;20.30;10.23;;;9.30;99.90;;;;;;5139536;27;20050;-74
2022/01/29 07:02:14;;;;;;;18.63;9.23;;;9.00;99.90;;;;;;5095160;27;20276;-74
2022/01/29 07:04:40;;;;;;;24.48;10.98;;;8.90;99.90;;;;;;5145697;27;20320;-74
2022/01/29 07:07:05;;;;;;;20.98;10.70;;;8.90;99.90;;;;;;5137308;27;20039;-74
2022/01/29 07:09:31;;;;;;;20.13;10.07;;;8.80;99.90;;;;;;5121609;27;20102;-74
2022/01/29 07:12:07;;;;;;;21.70;10.10;;;8.80;99.90;;;;;;5120274;27;20372;-74
2022/01/29 07:14:36;;;;;;;18.83;10.18;;;8.80;99.90;;;;;;5129974;27;20415;-74
2022/01/29 07:17:03;;;;;;;21.42;9.75;;;9.70;99.90;;;;;;5145001;27;20050;-74
2022/01/29 07:19:28;;;;;;;;;;;8.90;99.90;;;;;;5143168;27;20486;-74
2022/01/29 07:21:54;;;;;;;18.83;9.98;;;9.00;99.90;;;;;;5117225;27;19915;-75
2022/01/29 07:24:20;;;;;;;21.38;10.77;;;8.80;99.90;;;;;;5107505;27;20035;-75
2022/01/29 07:26:45;;;;;;;23.48;10.85;;;8.80;99.90;;;;;;5140797;27;20369;-75
2022/01/29 07:29:11;;;;;;;21.87;10.20;;;8.90;99.90;;;;;;5147555;27;20043;-74
2022/01/29 07:31:39;;;;;;;18.87;9.40;;;8.90;99.90;;;;;;5114621;28;20296;-74
2022/01/29 07:34:04;;;;;;;18.33;9.38;;;8.90;99.90;;;;;;5150610;27;20092;-74
2022/01/29 07:36:30;;;;;;;14.95;8.30;;;9.00;99.90;;;;;;5137733;27;20047;-74
2022/01/29 07:38:56;;;;;;;20.90;9.32;;;9.00;99.90;;;;;;5129638;27;20534;-73
2022/01/29 07:41:21;;;;;;;22.67;9.63;;;9.00;99.90;;;;;;5142397;27;20091;-73
2022/01/29 07:43:47;;;;;;;18.98;9.80;;;8.90;99.90;;;;;;5140916;27;20096;-73
2022/01/29 07:46:13;;;;;;;22.95;10.10;;;8.90;99.90;;;;;;5128417;27;20076;-73
2022/01/29 07:48:39;;;;;;;18.80;9.82;;;8.80;99.90;;;;;;5146316;27;20116;-80
2022/01/29 07:51:04;;;;;;;19.30;8.60;;;9.00;99.90;;;;;;5137518;27;20042;-80
2022/01/29 07:53:30;;;;;;;21.50;9.35;;;9.00;99.90;;;;;;5102541;27;20376;-80
2022/01/29 07:55:55;;;;;;;21.70;8.10;;;9.10;99.90;;;;;;5130877;27;20413;-79
2022/01/29 07:58:21;;;;;;;18.07;9.47;;;8.90;99.90;;;;;;5125179;27;20288;-80
2022/01/29 08:00:48;;;;;;;13.82;6.88;;;9.00;99.90;;;;;;5117975;27;20281;-80
2022/01/29 08:03:13;;;;;;;;;;;9.00;99.90;;;;;;5127894;27;20040;-80
2022/01/29 08:05:39;;;;;;;17.88;8.63;;;9.00;99.90;;;;;;5130337;27;19919;-80
2022/01/29 08:08:05;;;;;;;17.75;8.55;;;9.00;99.90;;;;;;5116543;27;20433;-79
2022/01/29 08:10:31;;;;;;;17.05;8.07;;;9.00;99.90;;;;;;5127048;27;20038;-82
2022/01/29 08:12:57;;;;;;;14.13;7.43;;;9.00;99.90;;;;;;5117130;28;20064;-80
2022/01/29 08:15:23;;;;;;;15.88;7.90;;;9.10;99.90;;;;;;5129059;27;20315;-80
2022/01/29 08:17:48;;;;;;;16.77;7.90;;;9.00;99.90;;;;;;5123172;27;20071;-80
2022/01/29 08:20:14;;;;;;;16.50;8.30;;;9.00;99.90;;;;;;5115422;27;20277;-80
2022/01/29 08:22:40;;;;;;;15.25;7.85;;;9.20;99.90;;;;;;5126674;27;20039;-79
2022/01/29 08:25:06;;;;;;;18.40;7.38;;;9.10;99.90;;;;;;5124119;27;20096;-79
2022/01/29 08:27:32;;;;;;;17.58;8.00;;;9.20;99.90;;;;;;5123917;27;20401;-79
2022/01/29 08:29:57;;;;;;;12.80;7.05;;;9.90;99.90;;;;;;5128878;27;20039;-79
2022/01/29 08:32:23;;;;;;;13.73;7.60;;;9.10;99.90;;;;;;5120768;27;20030;-79
2022/01/29 08:34:49;;;;;;;18.40;7.65;;;9.10;99.90;;;;;;5129395;27;20039;-80
2022/01/29 08:37:15;;;;;;;13.95;7.20;;;9.10;99.90;;;;;;5107502;27;20103;-79
2022/01/29 08:39:41;;;;;;;14.82;7.18;;;9.10;99.90;;;;;;5131094;27;20039;-79
2022/01/29 08:42:08;;;;;;;14.15;7.13;;;9.00;99.90;;;;;;5106733;27;20363;-79
2022/01/29 08:44:33;;;;;;;15.13;7.15;;;9.00;99.90;;;;;;5108531;27;20038;-80
2022/01/29 08:46:59;;;;;;;19.10;6.57;;;9.00;99.90;;;;;;5128913;27;20489;-80
2022/01/29 08:49:25;;;;;;;14.57;5.97;;;9.00;99.90;;;;;;5133765;27;20034;-80
2022/01/29 08:51:52;;;;;;;12.60;6.38;;;9.40;99.90;;;;;;5124409;27;20767;-80
2022/01/29 08:54:18;;;;;;;15.68;6.88;;;9.10;99.90;;;;;;5112009;27;20074;-80
2022/01/29 08:56:44;;;;;;;10.90;5.20;;;9.00;99.90;;;;;;5121618;27;20043;-82
2022/01/29 08:59:10;;;;;;;11.50;5.30;;;9.20;99.90;;;;;;5128586;27;20038;-85
2022/01/29 09:01:36;;;;;;;10.57;4.65;;;9.20;99.90;;;;;;5106217;27;20066;-80
2022/01/29 09:04:03;;;;;;;11.30;5.60;;;9.30;99.90;;;;;;5095335;27;20037;-81
2022/01/29 09:06:29;;;;;;;11.15;4.60;;;9.30;99.90;;;;;;5108791;27;20069;-81
2022/01/29 09:08:54;;;;;;;13.15;5.15;;;9.30;99.90;;;;;;5104922;27;20050;-81
2022/01/29 09:11:20;;;;;;;11.30;4.63;;;9.40;99.90;;;;;;5118982;27;20043;-81
2022/01/29 09:13:46;;;;;;;9.80;4.53;;;9.40;99.90;;;;;;5124221;27;20035;-81
2022/01/29 09:16:12;;;;;;;9.02;4.78;;;9.50;99.90;;;;;;5131946;27;20110;-81
2022/01/29 09:18:38;;;;;;;12.93;4.70;;;9.50;99.90;;;;;;5136576;27;20034;-81
2022/01/29 09:21:04;;;;;;;8.75;4.45;;;9.50;99.90;;;;;;5105533;27;20414;-81
2022/01/29 09:23:30;;;;;;;11.88;5.03;;;9.40;99.90;;;;;;5131393;27;20046;-82
2022/01/29 09:25:56;;;;;;;11.40;4.90;;;9.50;99.90;;;;;;5142993;27;20041;-81
2022/01/29 09:28:22;;;;;;;10.50;4.47;;;9.50;99.90;;;;;;5121224;27;20060;-81
2022/01/29 09:30:49;;;;;;;9.55;4.38;;;9.50;99.90;;;;;;5129030;27;20034;-81
2022/01/29 09:33:16;;;;;;;7.53;4.07;;;9.50;99.90;;;;;;5127379;27;20054;-81
2022/01/29 09:35:42;;;;;;;10.70;4.47;;;9.50;99.90;;;;;;5126035;27;20054;-81
2022/01/29 09:38:10;;;;;;;9.88;4.13;;;9.50;99.90;;;;;;5128147;27;20119;-81
2022/01/29 09:40:36;;;;;;;10.57;4.10;;;9.60;99.90;;;;;;5124404;27;20540;-81
2022/01/29 09:43:05;;;;;;;12.20;4.22;;;9.60;99.90;;;;;;5129964;27;20172;-82
2022/01/29 09:45:32;;;;;;;10.32;3.85;;;9.70;99.90;;;;;;5133130;27;20367;-84
2022/01/29 09:48:01;;;;;;;8.35;3.85;;;9.70;99.90;;;;;;5125473;27;20050;-83
2022/01/29 09:50:29;;;;;;;8.43;3.42;;;9.80;99.90;;;;;;5122125;27;20043;-83
2022/01/29 09:52:55;;;;;;;16.92;4.15;;;9.70;99.90;;;;;;5103216;27;20487;-83
2022/01/29 09:55:26;;;;;;;9.73;4.03;;;9.80;99.90;;;;;;5121340;27;20078;-83
2022/01/29 09:57:53;;;;;;;8.50;3.65;;;9.70;99.90;;;;;;5120707;27;20092;-83
2022/01/29 10:00:19;;;;;;;11.70;3.75;;;9.70;99.90;;;;;;5105813;27;20038;-84
2022/01/29 10:03:05;;;;;;;10.43;3.50;;;9.90;99.90;;;;;;5106125;27;20523;-83
2022/01/29 10:05:35;;;;;;;8.70;3.17;;;9.90;99.90;;;;;;5104982;27;20096;-83
2022/01/29 10:08:01;;;;;;;11.35;3.60;;;9.90;99.90;;;;;;5123814;27;20046;-84
2022/01/29 10:10:27;;;;;;;8.85;3.10;;;9.90;99.90;;;;;;5134261;27;20070;-84
2022/01/29 10:12:52;;;;;;;8.63;3.20;;;9.90;99.90;;;;;;5123379;27;20067;-82
2022/01/29 10:15:22;;;;;;;9.82;3.53;;;9.90;99.90;;;;;;5123641;27;20043;-83
2022/01/29 10:17:56;;;;;;;5.60;2.67;;;9.90;99.90;;;;;;5120559;27;20077;-81
2022/01/29 10:20:24;;;;;;;8.60;3.05;;;9.80;99.90;;;;;;5111354;27;20038;-81
2022/01/29 10:22:52;;;;;;;12.15;3.40;;;9.90;99.90;;;;;;5132290;27;20042;-82
2022/01/29 10:25:32;;;;;;;7.55;2.88;;;9.80;99.90;;;;;;5127491;27;20066;-82
2022/01/29 10:28:07;;;;;;;10.68;2.85;;;9.90;99.90;;;;;;5129269;27;20477;-82
2022/01/29 10:30:54;;;;;;;9.57;2.75;;;9.90;99.90;;;;;;5128043;27;20095;-82
2022/01/29 10:33:24;;;;;;;9.25;3.38;;;9.90;99.90;;;;;;5119272;27;20050;-82
2022/01/29 10:35:53;;;;;;;5.63;2.25;;;10.10;99.90;;;;;;5106540;27;20034;-83
2022/01/29 10:38:24;;;;;;;5.18;2.10;;;10.20;99.90;;;;;;5108091;27;20092;-82
2022/01/29 10:41:09;;;;;;;9.85;2.83;;;10.20;99.90;;;;;;5125191;27;20043;-82
2022/01/29 10:43:36;;;;;;;10.90;2.47;;;10.20;99.90;;;;;;5129883;27;20060;-83
2022/01/29 10:46:01;;;;;;;8.15;2.30;;;10.20;99.90;;;;;;5110094;27;20114;-82
2022/01/29 10:48:43;;;;;;;7.93;2.63;;;10.20;99.90;;;;;;5110736;27;20122;-83
2022/01/29 10:51:13;;;;;;;8.25;2.10;;;10.30;99.90;;;;;;5095125;27;20043;-82
2022/01/29 10:53:39;;;;;;;9.30;2.08;;;10.20;99.90;;;;;;5127192;27;20058;-82
2022/01/29 10:56:05;;;;;;;6.22;2.03;;;10.20;99.90;;;;;;5122133;27;20046;-84
2022/01/29 10:58:40;;;;;;;4.50;1.50;;;10.30;99.90;;;;;;5125763;27;20039;-86
2022/01/29 11:01:17;;;;;;;5.70;2.00;;;10.30;99.90;;;;;;5118133;27;20027;-83
2022/01/29 11:03:43;;;;;;;;;;;10.30;99.90;;;;;;5109821;27;20031;-81
2022/01/29 11:06:17;;;;;;;10.93;2.08;;;10.30;99.90;;;;;;5119140;27;19997;-82
2022/01/29 11:08:43;;;;;;;6.75;1.90;;;10.40;99.90;;;;;;5120240;27;20058;-84
2022/01/29 11:11:11;;;;;;;7.88;2.00;;;10.40;99.90;;;;;;5127542;27;20034;-83
2022/01/29 11:13:37;;;;;;;6.03;1.95;;;10.40;99.90;;;;;;5123195;27;20525;-83
2022/01/29 11:16:03;;;;;;;;;;;10.40;99.90;;;;;;5114990;27;20096;-83
2022/01/29 11:18:33;;;;;;;8.65;1.95;;;10.70;99.90;;;;;;5121739;27;19931;-81
2022/01/29 11:21:01;;;;;;;8.60;2.00;;;10.50;99.90;;;;;;5125114;27;20053;-81
2022/01/29 11:23:29;;;;;;;8.57;1.85;;;10.50;99.90;;;;;;5121976;28;20035;-83
2022/01/29 11:25:57;;;;;;;9.65;1.98;;;10.50;99.90;;;;;;5119308;28;20436;-80
2022/01/29 11:28:29;;;;;;;10.82;2.25;;;10.50;99.90;;;;;;5119165;28;20046;-83
2022/01/29 11:31:15;;;;;;;4.13;1.75;;;10.50;99.90;;;;;;5124058;27;20038;-81
2022/01/29 11:33:59;;;;;;;7.63;2.00;;;10.40;99.90;;;;;;5110334;27;20039;-82
2022/01/29 11:36:47;;;;;;;8.63;1.80;;;10.50;99.90;;;;;;5125130;27;20279;-82
2022/01/29 11:39:30;;;;;;;10.82;1.65;;;10.50;99.90;;;;;;5125293;27;20058;-81
2022/01/29 11:42:17;;;;;;;8.43;2.05;;;10.50;99.90;;;;;;5118871;28;20122;-84
2022/01/29 11:44:45;;;;;;;6.53;1.58;;;10.50;99.90;;;;;;5116669;28;20119;-82
2022/01/29 11:47:48;;;;;;;4.78;1.90;;;10.50;99.90;;;;;;5121626;28;20039;-84
2022/01/29 11:50:23;;;;;;;12.82;2.45;;;10.50;99.90;;;;;;5094872;28;20035;-82
2022/01/29 11:53:00;;;;;;;7.25;1.98;;;10.50;99.90;;;;;;5128018;27;20038;-83
2022/01/29 11:55:33;;;;;;;;;;;10.60;99.90;;;;;;5128889;27;20035;-83
2022/01/29 11:58:16;;;;;;;6.75;1.60;;;10.60;99.90;;;;;;5125429;27;19964;-84
2022/01/29 12:00:49;;;;;;;6.63;1.70;;;10.50;99.90;;;;;;5159214;27;20083;-80
2022/01/29 12:03:33;;;;;;;8.50;1.80;;;10.50;99.90;;;;;;5119135;27;20036;-80
2022/01/29 12:08:41;;;;;;;5.63;1.42;;;10.60;99.90;;;;;;5124568;27;20475;-82
2022/01/29 12:11:11;;;;;;;5.55;1.55;;;10.70;99.90;;;;;;5154631;27;20042;-81
2022/01/29 12:13:37;;;;;;;6.57;1.45;;;10.70;99.90;;;;;;5126535;27;20083;-83
2022/01/29 12:16:05;;;;;;;5.97;1.40;;;10.70;99.90;;;;;;5112221;27;20031;-82
2022/01/29 12:18:35;;;;;;;5.88;1.65;;;10.70;99.90;;;;;;5105446;27;20391;-79
2022/01/29 12:21:06;;;;;;;4.47;1.38;;;10.90;99.90;;;;;;5126366;27;20160;-78
2022/01/29 12:23:46;;;;;;;10.07;1.98;;;11.10;99.90;;;;;;5124107;27;20032;-79
2022/01/29 12:26:12;;;;;;;7.75;1.40;;;11.20;99.90;;;;;;5117230;27;20114;-79
2022/01/29 12:28:49;;;;;;;6.87;1.77;;;11.20;99.90;;;;;;5126049;27;20067;-78
2022/01/29 12:31:17;;;;;;;3.92;1.23;;;11.20;99.90;;;;;;5116022;27;20637;-77
2022/01/29 12:33:43;;;;;;;4.70;1.60;;;11.20;99.90;;;;;;5122826;27;20498;-78
2022/01/29 12:36:09;;;;;;;5.55;1.48;;;11.10;99.90;;;;;;5115664;27;20042;-78
2022/01/29 12:38:41;;;;;;;5.82;1.60;;;11.10;99.90;;;;;;5100709;27;20040;-78
2022/01/29 12:41:24;;;;;;;5.43;1.35;;;11.10;99.90;;;;;;5101413;28;20093;-81
2022/01/29 12:44:04;;;;;;;10.27;1.42;;;11.10;99.90;;;;;;5113858;27;20042;-82
2022/01/29 12:46:30;;;;;;;6.72;1.90;;;11.10;99.90;;;;;;5115933;27;20073;-82
2022/01/29 12:49:14;;;;;;;9.27;1.52;;;11.10;99.90;;;;;;5126543;27;20041;-83
2022/01/29 12:51:59;;;;;;;7.30;1.40;;;11.00;99.90;;;;;;5106026;27;20472;-81
2022/01/29 12:54:28;;;;;;;8.40;1.60;;;11.10;99.90;;;;;;5105298;28;20176;-82
2022/01/29 12:56:56;;;;;;;10.85;1.88;;;11.10;99.90;;;;;;5121851;27;20044;-81
2022/01/29 12:59:22;;;;;;;7.38;1.90;;;11.10;99.90;;;;;;5121745;27;20032;-83
2022/01/29 13:01:49;;;;;;;7.85;1.50;;;11.20;99.90;;;;;;5100649;28;20039;-79
2022/01/29 13:04:18;;;;;;;8.20;1.88;;;11.20;99.90;;;;;;5101394;27;20039;-80